Time;durP1;ratioP1;P1;durP2;ratioP2;P2;SDS_P1;SDS_P2;PMS_P1;PMS_P2;Temp;Humidity;BMP_temperature;BMP_pressure;BME280_temperature;BME280_humidity;BME280_pressure;Samples;Min_cycle;Max_cycle;Signal;HPM_P1;HPM_P2
2022/10/24 00:02:02;;;;;;;6.88;1.02;;;;;;;19.05;55.98;98704.16;5155285;28;20046;-81
2022/10/24 00:04:52;;;;;;;7.72;1.27;;;;;;;19.01;56.31;98715.31;5175037;28;20058;-81
2022/10/24 00:07:42;;;;;;;8.45;1.10;;;;;;;18.96;56.34;98716.94;5159138;28;20049;-81
2022/10/24 00:10:35;;;;;;;6.07;0.85;;;;;;;18.78;57.18;98707.63;5171327;28;20088;-81
2022/10/24 00:13:25;;;;;;;7.35;1.10;;;;;;;18.78;56.62;98715.69;5158517;28;20089;-81
2022/10/24 00:16:15;;;;;;;11.38;1.50;;;;;;;18.69;56.91;98714.19;5164156;28;20128;-81
2022/10/24 00:19:05;;;;;;;4.70;1.02;;;;;;;18.46;57.40;98692.22;5149167;28;20077;-81
2022/10/24 00:21:56;;;;;;;3.60;1.10;;;;;;;18.34;58.20;98707.25;5168098;28;20062;-81
2022/10/24 00:24:46;;;;;;;9.40;1.50;;;;;;;18.37;58.07;98714.91;5151068;28;20108;-81
2022/10/24 00:27:36;;;;;;;11.35;1.13;;;;;;;18.35;57.05;98707.06;5172727;28;20569;-81
2022/10/24 00:30:27;;;;;;;9.93;1.23;;;;;;;18.27;57.41;98713.41;5145155;28;20058;-81
2022/10/24 00:33:17;;;;;;;4.20;0.95;;;;;;;18.25;57.78;98712.81;5160104;28;20046;-81
2022/10/24 00:36:16;;;;;;;7.85;1.35;;;;;;;18.14;58.68;98726.78;5146642;28;20133;-81
2022/10/24 00:39:06;;;;;;;4.03;1.10;;;;;;;17.88;59.13;98713.22;5143846;28;20061;-81
2022/10/24 00:41:57;;;;;;;6.93;1.20;;;;;;;17.75;60.12;98712.09;5156616;28;20061;-81
2022/10/24 00:44:51;;;;;;;6.28;1.10;;;;;;;17.61;59.92;98729.09;5150244;28;20547;-80
2022/10/24 00:47:41;;;;;;;6.40;1.07;;;;;;;17.57;60.68;98750.09;5145010;28;20105;-81
2022/10/24 00:50:32;;;;;;;3.13;1.13;;;;;;;17.50;59.66;98743.06;5146836;28;20421;-81
2022/10/24 00:53:24;;;;;;;5.85;1.00;;;;;;;17.45;61.20;98734.75;5156782;28;20057;-81
2022/10/24 00:56:17;;;;;;;2.25;0.75;;;;;;;17.57;61.32;98755.47;5170863;28;20046;-80
2022/10/24 00:59:09;;;;;;;9.75;1.60;;;;;;;17.47;61.73;98751.47;5160972;28;20057;-81
2022/10/24 01:01:59;;;;;;;5.97;1.42;;;;;;;17.36;61.63;98742.13;5160041;28;20053;-80
2022/10/24 01:04:50;;;;;;;4.90;1.30;;;;;;;17.33;62.39;98754.06;5154910;28;20061;-80
2022/10/24 01:07:57;;;;;;;5.93;1.20;;;;;;;17.43;61.38;98759.09;5169466;28;20101;-81
2022/10/24 01:10:52;;;;;;;8.80;1.45;;;;;;;17.23;62.63;98752.72;5165758;28;20086;-81
2022/10/24 01:14:07;;;;;;;8.45;1.35;;;;;;;17.28;62.31;98737.72;5164830;28;20073;-81
2022/10/24 01:17:08;;;;;;;7.22;1.00;;;;;;;17.30;62.68;98743.72;5164712;28;20073;-80
2022/10/24 01:20:32;;;;;;;8.73;1.25;;;;;;;17.15;62.81;98745.63;5143598;28;20046;-81
2022/10/24 01:23:50;;;;;;;6.83;1.23;;;;;;;17.06;62.20;98741.44;5160908;28;20444;-81
2022/10/24 01:27:01;;;;;;;9.05;1.42;;;;;;;17.18;62.34;98744.41;5148313;28;20064;-80
2022/10/24 01:30:01;;;;;;;11.57;1.50;;;;;;;16.89;63.12;98725.63;5153615;28;20050;-80
2022/10/24 01:33:14;;;;;;;6.65;1.52;;;;;;;16.91;63.69;98750.34;5158339;28;20130;-81
2022/10/24 01:36:09;;;;;;;5.22;1.42;;;;;;;16.82;63.79;98726.56;5169871;28;20076;-81
2022/10/24 01:39:02;;;;;;;7.88;1.60;;;;;;;16.71;63.35;98717.16;5165795;28;20061;-80
2022/10/24 01:41:56;;;;;;;7.72;1.27;;;;;;;16.77;63.54;98729.00;5147818;28;20114;-80
2022/10/24 01:44:53;;;;;;;4.78;1.02;;;;;;;16.58;63.56;98717.00;5146151;28;20149;-81
2022/10/24 01:47:49;;;;;;;4.30;1.15;;;;;;;16.79;64.45;98748.38;5142674;28;20488;-80
2022/10/24 01:50:43;;;;;;;4.95;1.02;;;;;;;16.62;64.21;98726.31;5129220;28;20065;-80
2022/10/24 01:53:36;;;;;;;9.25;1.20;;;;;;;16.54;64.37;98723.75;5134657;28;20698;-80
2022/10/24 01:56:26;;;;;;;4.28;1.15;;;;;;;16.44;63.77;98716.84;5131387;28;20042;-80
2022/10/24 01:59:28;;;;;;;7.38;1.25;;;;;;;16.56;64.41;98733.28;5171041;28;20093;-81
2022/10/24 02:02:25;;;;;;;7.63;1.17;;;;;;;16.54;64.26;98727.28;5156437;28;20050;-80
2022/10/24 02:05:24;;;;;;;7.78;1.33;;;;;;;16.39;65.12;98716.63;5155430;28;20126;-80
2022/10/24 02:08:20;;;;;;;9.70;1.38;;;;;;;16.29;65.64;98739.31;5166670;28;20062;-81
2022/10/24 02:11:11;;;;;;;7.90;1.30;;;;;;;16.27;64.41;98730.66;5167737;28;20713;-81
2022/10/24 02:14:15;;;;;;;9.82;1.50;;;;;;;16.22;65.74;98733.88;5133586;28;20053;-81
2022/10/24 02:17:05;;;;;;;12.65;1.55;;;;;;;16.16;65.62;98705.22;5162054;28;20124;-80
2022/10/24 02:19:57;;;;;;;7.22;2.35;;;;;;;16.67;63.15;98716.72;5142582;28;20578;-80
2022/10/24 02:22:52;;;;;;;7.32;1.40;;;;;;;17.37;61.31;98730.38;5169400;28;20172;-80
2022/10/24 02:25:47;;;;;;;10.00;1.58;;;;;;;17.69;59.55;98722.78;5172290;28;20185;-81
2022/10/24 02:28:44;;;;;;;8.63;1.73;;;;;;;17.79;59.37;98699.97;5170628;28;20098;-81
2022/10/24 02:31:38;;;;;;;10.55;1.55;;;;;;;18.24;57.71;98673.56;5147073;28;20057;-81
2022/10/24 02:34:33;;;;;;;9.40;1.40;;;;;;;18.27;58.17;98686.56;5146462;28;20052;-81
2022/10/24 02:37:26;;;;;;;7.82;1.55;;;;;;;18.30;57.64;98682.66;5171388;28;20101;-81
2022/10/24 02:40:18;;;;;;;6.18;1.35;;;;;;;18.35;57.88;98684.75;5153481;28;20097;-82
2022/10/24 02:43:10;;;;;;;8.43;1.50;;;;;;;18.30;57.29;98678.13;5165476;28;20151;-81
2022/10/24 02:46:02;;;;;;;11.25;1.95;;;;;;;18.39;57.17;98667.22;5151181;28;20096;-82
2022/10/24 02:48:57;;;;;;;9.88;1.48;;;;;;;18.51;57.30;98684.41;5162205;28;20057;-81
2022/10/24 02:51:49;;;;;;;8.07;1.67;;;;;;;18.52;57.26;98680.69;5170065;28;20145;-82
2022/10/24 02:54:39;;;;;;;14.57;2.28;;;;;;;18.51;57.11;98670.97;5134363;28;20082;-81
2022/10/24 02:57:29;;;;;;;12.65;1.40;;;;;;;18.58;56.81;98671.81;5172783;28;20050;-81
2022/10/24 03:00:19;;;;;;;9.35;1.98;;;;;;;18.66;57.09;98665.44;5172082;28;21286;-82
2022/10/24 03:03:10;;;;;;;11.95;2.13;;;;;;;18.79;56.75;98678.91;5161173;28;20676;-81
2022/10/24 03:06:00;;;;;;;9.40;2.10;;;;;;;18.69;56.10;98636.31;5167396;28;20855;-82
2022/10/24 03:08:50;;;;;;;10.60;1.88;;;;;;;18.80;56.52;98671.66;5158169;28;20136;-81
2022/10/24 03:11:40;;;;;;;11.32;1.90;;;;;;;18.77;56.48;98665.69;5174654;28;20508;-81
2022/10/24 03:14:30;;;;;;;8.65;1.63;;;;;;;18.89;56.35;98673.97;5152484;28;20049;-81
2022/10/24 03:17:22;;;;;;;8.45;1.85;;;;;;;18.84;56.94;98683.66;5140880;28;20043;-81
2022/10/24 03:20:12;;;;;;;12.43;1.98;;;;;;;18.89;56.26;98675.81;5147843;28;20058;-81
2022/10/24 03:23:02;;;;;;;9.45;2.72;;;;;;;18.89;57.17;98690.06;5162182;28;20050;-81
2022/10/24 03:25:54;;;;;;;9.52;1.90;;;;;;;18.95;56.55;98699.19;5150181;28;20092;-81
2022/10/24 03:28:44;;;;;;;6.30;1.70;;;;;;;18.89;56.80;98690.06;5173801;28;20057;-81
2022/10/24 03:31:35;;;;;;;15.52;1.98;;;;;;;18.98;56.71;98688.03;5150761;28;20145;-82
2022/10/24 03:34:25;;;;;;;10.40;1.52;;;;;;;19.16;56.27;98703.53;5137074;28;20057;-81
2022/10/24 03:37:15;;;;;;;15.57;2.15;;;;;;;19.00;56.30;98704.75;5157542;28;20054;-82
2022/10/24 03:40:06;;;;;;;12.25;1.83;;;;;;;18.89;56.78;98697.31;5140226;28;20065;-81
2022/10/24 03:42:56;;;;;;;13.50;2.00;;;;;;;19.09;56.53;98694.66;5168746;28;20097;-81
2022/10/24 03:45:46;;;;;;;8.98;1.98;;;;;;;19.14;56.48;98703.75;5152141;28;20086;-81
2022/10/24 03:48:36;;;;;;;9.45;2.15;;;;;;;19.14;56.34;98687.63;5162852;28;20053;-82
2022/10/24 03:51:26;;;;;;;15.52;2.05;;;;;;;19.13;55.78;98669.81;5162859;28;20054;-81
2022/10/24 03:54:16;;;;;;;9.35;1.95;;;;;;;19.16;56.17;98676.66;5164097;28;20053;-81
2022/10/24 03:57:08;;;;;;;14.65;2.40;;;;;;;19.51;55.60;98697.97;5151919;28;20524;-81
2022/10/24 03:59:59;;;;;;;11.73;1.90;;;;;;;19.24;55.84;98674.59;5141657;28;20128;-81
2022/10/24 04:02:51;;;;;;;13.43;1.90;;;;;;;19.12;56.82;98684.31;5147644;28;20208;-82
2022/10/24 04:05:41;;;;;;;10.38;3.00;;;;;;;18.83;57.35;98693.56;5165952;28;20073;-81
2022/10/24 04:08:31;;;;;;;10.15;2.50;;;;;;;18.89;57.86;98700.81;5141999;28;20184;-81
2022/10/24 04:11:22;;;;;;;11.05;2.28;;;;;;;19.24;56.74;98689.91;5147941;28;20065;-81
2022/10/24 04:14:13;;;;;;;6.72;1.73;;;;;;;19.21;57.09;98693.00;5161111;28;20124;-80
2022/10/24 04:17:03;;;;;;;15.90;2.85;;;;;;;19.25;56.61;98695.06;5161857;28;20064;-81
2022/10/24 04:19:53;;;;;;;11.30;2.75;;;;;;;19.06;57.49;98705.81;5145887;28;20050;-81
2022/10/24 04:22:43;;;;;;;18.80;2.30;;;;;;;19.05;57.50;98698.78;5167725;28;20130;-80
2022/10/24 04:25:34;;;;;;;13.50;2.33;;;;;;;19.16;57.65;98698.16;5147163;28;20050;-81
2022/10/24 04:28:24;;;;;;;14.20;2.20;;;;;;;19.43;56.99;98698.97;5158563;28;20043;-81
2022/10/24 04:31:14;;;;;;;9.13;2.20;;;;;;;19.32;57.67;98702.31;5159125;28;20080;-81
2022/10/24 04:34:09;;;;;;;11.43;2.30;;;;;;;19.23;57.41;98685.53;5158787;28;20058;-81
2022/10/24 04:37:00;;;;;;;13.68;2.70;;;;;;;19.23;57.39;98690.91;5150098;28;20054;-82
2022/10/24 04:39:52;;;;;;;8.77;2.30;;;;;;;19.33;57.23;98707.47;5149705;28;20053;-81
2022/10/24 04:42:42;;;;;;;14.23;2.20;;;;;;;19.34;57.11;98687.63;5160090;28;20425;-81
2022/10/24 04:45:33;;;;;;;12.13;2.45;;;;;;;19.19;57.70;98678.94;5160690;28;20112;-82
2022/10/24 04:48:23;;;;;;;15.32;2.47;;;;;;;19.13;57.66;98682.44;5162739;28;20062;-82
2022/10/24 04:51:13;;;;;;;16.50;2.33;;;;;;;19.08;58.34;98683.06;5142547;28;20412;-82
2022/10/24 04:54:09;;;;;;;8.23;1.77;;;;;;;18.92;58.60;98664.66;5154652;28;20558;-82
2022/10/24 04:56:59;;;;;;;9.02;2.00;;;;;;;19.05;58.92;98688.84;5160586;28;20103;-83
2022/10/24 04:59:49;;;;;;;15.25;2.10;;;;;;;18.89;59.22;98682.00;5146786;28;20050;-81
2022/10/24 05:02:40;;;;;;;10.98;2.38;;;;;;;18.94;58.97;98690.31;5163443;28;20688;-82
2022/10/24 05:05:30;;;;;;;9.68;1.73;;;;;;;18.82;59.01;98713.41;5167486;28;20054;-82
2022/10/24 05:08:20;;;;;;;14.98;2.60;;;;;;;19.11;58.23;98706.84;5129360;28;20112;-82
2022/10/24 05:11:10;;;;;;;13.52;2.17;;;;;;;18.91;58.59;98700.63;5155968;28;20073;-82
2022/10/24 05:14:01;;;;;;;12.20;2.70;;;;;;;19.00;58.51;98696.69;5141484;28;20058;-81
2022/10/24 05:16:51;;;;;;;8.32;2.40;;;;;;;19.13;58.68;98699.41;5141994;28;20050;-81
2022/10/24 05:19:41;;;;;;;9.90;1.73;;;;;;;19.04;59.03;98697.97;5144467;28;20072;-81
2022/10/24 05:22:31;;;;;;;12.15;2.33;;;;;;;19.06;58.18;98682.44;5148451;28;20073;-81
2022/10/24 05:25:21;;;;;;;12.57;2.88;;;;;;;19.23;58.11;98691.75;5145463;28;20069;-81
2022/10/24 05:28:11;;;;;;;15.40;3.35;;;;;;;19.10;58.23;98683.69;5168379;28;20053;-81
2022/10/24 05:31:01;;;;;;;12.50;2.03;;;;;;;19.13;58.65;98685.13;5168594;28;20050;-82
2022/10/24 05:33:51;;;;;;;10.07;2.30;;;;;;;19.12;58.49;98691.56;5150541;28;20477;-81
2022/10/24 05:36:41;;;;;;;12.70;1.83;;;;;;;18.96;59.88;98698.16;5173793;28;20108;-82
2022/10/24 05:39:31;;;;;;;8.98;2.35;;;;;;;19.18;58.63;98721.13;5150917;28;20097;-81
2022/10/24 05:42:21;;;;;;;12.50;2.17;;;;;;;19.06;58.99;98695.88;5151634;28;20046;-82
2022/10/24 05:45:11;;;;;;;16.17;2.67;;;;;;;18.78;59.66;98680.78;5155559;28;20049;-81
2022/10/24 05:48:01;;;;;;;12.77;2.58;;;;;;;18.83;60.46;98703.50;5160450;28;20068;-81
2022/10/24 05:50:56;;;;;;;10.05;2.20;;;;;;;18.74;60.69;98700.16;5135383;28;20105;-81
2022/10/24 05:53:47;;;;;;;9.35;2.35;;;;;;;18.98;60.17;98694.22;5157304;28;20057;-82
2022/10/24 05:56:38;;;;;;;8.93;2.28;;;;;;;18.81;61.96;98719.84;5150942;28;20069;-84
2022/10/24 05:59:28;;;;;;;4.72;1.80;;;;;;;18.58;63.09;98736.25;5136267;28;20428;-83
2022/10/24 06:02:19;;;;;;;12.32;1.70;;;;;;;18.24;64.17;98772.84;5158054;28;20101;-82
2022/10/24 06:05:10;;;;;;;16.30;2.97;;;;;;;18.64;63.61;98791.84;5156013;28;20073;-83
2022/10/24 06:08:00;;;;;;;7.85;2.13;;;;;;;18.48;64.14;98789.50;5170167;28;20054;-82
2022/10/24 06:10:50;;;;;;;17.40;2.60;;;;;;;18.50;65.57;98792.81;5145048;28;20089;-82
2022/10/24 06:13:41;;;;;;;21.77;2.78;;;;;;;18.31;65.62;98805.13;5156205;28;20065;-82
2022/10/24 06:16:32;;;;;;;11.40;2.80;;;;;;;18.50;65.55;98827.72;5149895;28;20141;-83
2022/10/24 06:19:28;;;;;;;11.25;2.50;;;;;;;17.80;66.32;98841.06;5151026;28;20046;-84
2022/10/24 06:22:18;;;;;;;11.30;2.20;;;;;;;17.98;66.51;98819.16;5165226;28;20049;-84
2022/10/24 06:25:09;;;;;;;10.40;2.67;;;;;;;18.25;66.07;98787.94;5184387;28;20085;-84
2022/10/24 06:27:59;;;;;;;20.02;3.33;;;;;;;18.38;65.70;98776.47;5187682;28;20055;-85
2022/10/24 06:30:53;;;;;;;12.38;2.65;;;;;;;18.40;65.80;98803.09;5166370;28;20157;-84
2022/10/24 06:33:43;;;;;;;14.30;2.25;;;;;;;17.95;65.71;98738.25;5163202;28;20050;-84
2022/10/24 06:36:35;;;;;;;13.90;2.55;;;;;;;18.40;64.48;98776.25;5176710;28;20691;-83
2022/10/24 06:39:26;;;;;;;9.75;2.58;;;;;;;17.93;66.24;98767.13;5149027;28;20052;-82
2022/10/24 06:42:17;;;;;;;12.63;2.40;;;;;;;18.19;66.42;98812.06;5170628;28;20531;-82
2022/10/24 06:45:08;;;;;;;8.05;2.10;;;;;;;17.71;67.60;98774.34;5165368;28;20408;-82
2022/10/24 06:47:58;;;;;;;11.23;2.30;;;;;;;17.51;67.39;98780.38;5154848;28;20050;-82
2022/10/24 06:50:48;;;;;;;13.55;3.10;;;;;;;17.63;67.96;98791.41;5158798;28;20551;-82
2022/10/24 06:53:39;;;;;;;9.20;2.50;;;;;;;18.11;66.20;98810.34;5160479;28;20101;-82
2022/10/24 06:56:28;;;;;;;11.55;2.42;;;;;;;18.12;66.08;98812.03;5153282;28;20129;-82
2022/10/24 06:59:19;;;;;;;19.58;3.35;;;;;;;18.03;67.06;98823.91;5153484;28;20050;-82
2022/10/24 07:02:13;;;;;;;12.80;2.63;;;;;;;18.05;67.11;98825.41;5162457;28;20050;-82
2022/10/24 07:05:07;;;;;;;7.93;2.40;;;;;;;18.19;66.57;98838.91;5151300;28;20069;-82
2022/10/24 07:07:57;;;;;;;8.00;2.28;;;;;;;17.94;66.70;98806.31;5184882;28;20064;-82
2022/10/24 07:10:51;;;;;;;12.43;2.42;;;;;;;17.93;66.49;98831.50;5176704;28;20089;-83
2022/10/24 07:13:41;;;;;;;7.28;2.35;;;;;;;17.96;66.82;98852.56;5167483;28;20089;-82
2022/10/24 07:16:31;;;;;;;9.38;1.98;;;;;;;18.06;67.16;98853.88;5152919;28;20049;-83
2022/10/24 07:19:21;;;;;;;10.02;2.42;;;;;;;17.91;66.21;98802.16;5153380;28;20612;-83
2022/10/24 07:22:11;;;;;;;9.77;2.20;;;;;;;18.08;65.96;98795.50;5160872;28;20054;-84
2022/10/24 07:25:02;;;;;;;11.63;2.28;;;;;;;18.02;66.80;98811.53;5152388;28;20056;-82
2022/10/24 07:27:54;;;;;;;11.73;2.25;;;;;;;17.76;68.13;98834.44;5170085;28;20077;-83
2022/10/24 07:30:45;;;;;;;11.88;2.42;;;;;;;17.96;67.75;98849.88;5160679;28;20046;-83
2022/10/24 07:33:36;;;;;;;6.13;2.53;;;;;;;18.17;67.55;98875.81;5143605;28;20045;-83
2022/10/24 07:36:29;;;;;;;15.05;3.00;;;;;;;18.00;66.92;98835.03;5167878;28;20101;-84
2022/10/24 07:39:19;;;;;;;9.95;2.45;;;;;;;17.86;67.30;98807.31;5179686;28;20046;-84
2022/10/24 07:42:11;;;;;;;8.57;2.65;;;;;;;17.78;67.87;98781.47;5150186;28;20043;-83
2022/10/24 07:45:03;;;;;;;10.93;2.65;;;;;;;18.14;67.63;98809.94;5157120;28;20120;-83
2022/10/24 07:47:53;;;;;;;9.98;2.40;;;;;;;18.21;67.68;98808.16;5170747;28;20536;-82
2022/10/24 07:50:45;;;;;;;11.55;2.72;;;;;;;18.02;68.48;98811.53;5141812;28;20050;-82
2022/10/24 07:53:36;;;;;;;14.80;3.28;;;;;;;17.76;68.85;98796.91;5176324;28;20062;-83
2022/10/24 07:56:26;;;;;;;6.13;2.47;;;;;;;17.58;70.50;98823.31;5143249;28;20133;-82
2022/10/24 07:59:17;;;;;;;16.25;2.78;;;;;;;16.88;71.54;98790.06;5158460;28;20421;-82
2022/10/24 08:02:27;;;;;;;10.80;2.58;;;;;;;16.82;70.86;98766.72;5169954;28;20137;-84
2022/10/24 08:05:18;;;;;;;11.98;2.65;;;;;;;17.28;70.49;98806.56;5161096;28;20460;-82
2022/10/24 08:08:11;;;;;;;15.25;3.60;;;;;;;17.11;69.89;98776.50;5165401;28;20050;-82
2022/10/24 08:11:25;;;;;;;13.27;3.10;;;;;;;17.23;70.16;98785.69;5135530;28;20050;-83
2022/10/24 08:14:15;;;;;;;10.38;2.80;;;;;;;17.45;70.42;98810.66;5139617;28;20657;-83
2022/10/24 08:17:06;;;;;;;15.63;2.97;;;;;;;17.56;69.97;98826.22;5155458;28;20528;-83
2022/10/24 08:19:56;;;;;;;11.38;2.90;;;;;;;17.72;68.81;98821.59;5175458;28;20525;-83
2022/10/24 08:22:47;;;;;;;9.93;2.83;;;;;;;17.36;71.60;98839.44;5158491;28;20058;-83
2022/10/24 08:25:40;;;;;;;14.80;2.67;;;;;;;17.89;68.78;98823.00;5156896;28;20050;-83
2022/10/24 08:28:31;;;;;;;9.00;2.97;;;;;;;17.99;68.55;98842.25;5182527;28;20054;-84
2022/10/24 08:31:23;;;;;;;13.85;3.40;;;;;;;17.94;68.58;98814.34;5159626;28;20050;-83
2022/10/24 08:34:13;;;;;;;12.65;3.25;;;;;;;17.47;69.66;98762.19;5159542;28;20058;-82
2022/10/24 08:37:04;;;;;;;16.00;3.50;;;;;;;18.11;68.26;98799.59;5170596;28;20076;-83
2022/10/24 08:39:54;;;;;;;13.95;3.10;;;;;;;17.98;68.88;98816.47;5171519;28;20057;-83
2022/10/24 08:42:46;;;;;;;9.60;2.58;;;;;;;17.92;68.48;98819.94;5181227;28;20060;-83
2022/10/24 08:45:48;;;;;;;20.70;3.03;;;;;;;17.92;68.21;98805.69;5186200;28;20082;-82
2022/10/24 08:48:54;;;;;;;10.20;2.58;;;;;;;17.81;68.67;98789.13;5150685;28;20042;-83
2022/10/24 08:51:51;;;;;;;11.45;2.20;;;;;;;18.05;68.04;98803.09;5187464;28;20065;-83
2022/10/24 08:54:43;;;;;;;15.40;2.33;;;;;;;18.37;67.76;98833.84;5177256;28;20061;-83
2022/10/24 08:57:34;;;;;;;10.35;2.22;;;;;;;18.23;67.29;98822.19;5159967;28;20229;-83
2022/10/24 09:00:28;;;;;;;22.20;5.00;;;;;;;18.01;67.34;98785.72;5154933;28;20456;-82
2022/10/24 09:03:31;;;;;;;11.00;3.10;;;;;;;18.05;67.26;98805.78;5168312;28;20097;-83
2022/10/24 09:06:42;;;;;;;7.13;2.20;;;;;;;18.16;67.35;98815.97;5143752;28;20066;-83
2022/10/24 09:09:39;;;;;;;15.23;2.33;;;;;;;18.20;67.93;98825.28;5172844;28;20069;-82
2022/10/24 09:12:29;;;;;;;11.52;2.75;;;;;;;17.79;68.28;98809.09;5141347;28;20050;-83
2022/10/24 09:15:29;;;;;;;12.27;2.20;;;;;;;17.88;68.60;98834.75;5150804;28;20070;-82
2022/10/24 09:18:25;;;;;;;12.73;2.65;;;;;;;18.08;68.04;98853.69;5180155;28;20173;-83
2022/10/24 09:21:15;;;;;;;13.93;2.33;;;;;;;18.33;67.23;98840.63;5151792;28;20053;-82
2022/10/24 09:24:28;;;;;;;8.52;2.58;;;;;;;18.17;66.51;98808.72;5151491;28;20552;-82
2022/10/24 09:27:28;;;;;;;10.15;2.55;;;;;;;18.46;65.63;98861.34;5135107;28;20141;-82
2022/10/24 09:30:25;;;;;;;14.13;2.53;;;;;;;18.16;67.02;98850.84;5154389;28;20409;-82
2022/10/24 09:33:32;;;;;;;8.77;2.10;;;;;;;18.65;65.04;98876.75;5142925;28;20069;-83
2022/10/24 09:36:26;;;;;;;6.63;1.80;;;;;;;18.52;65.09;98865.94;5155758;28;20112;-83
2022/10/24 09:39:34;;;;;;;14.10;2.10;;;;;;;18.20;66.50;98878.94;5161991;28;20053;-82
2022/10/24 09:42:24;;;;;;;8.63;1.70;;;;;;;17.99;66.21;98849.50;5146717;28;20098;-83
2022/10/24 09:45:26;;;;;;;4.50;1.77;;;;;;;18.11;66.71;98873.91;5161263;28;20099;-83
2022/10/24 09:48:38;;;;;;;8.93;1.50;;;;;;;17.98;66.57;98874.63;5153354;28;20062;-82
2022/10/24 09:51:48;;;;;;;7.80;1.75;;;;;;;17.76;67.06;98826.41;5175385;28;20571;-83
2022/10/24 09:54:38;;;;;;;7.20;1.90;;;;;;;18.04;65.82;98839.81;5153243;28;20128;-82
2022/10/24 09:57:37;;;;;;;5.55;2.05;;;;;;;18.23;65.90;98867.81;5149826;28;20474;-82
2022/10/24 10:00:32;;;;;;;10.68;2.33;;;;;;;18.25;66.47;98862.28;5138432;28;20078;-83
2022/10/24 10:03:22;;;;;;;10.35;2.08;;;;;;;17.51;67.85;98815.22;5158200;28;20046;-82
2022/10/24 10:06:17;;;;;;;6.18;1.98;;;;;;;18.33;66.40;98880.06;5177557;28;20061;-82
2022/10/24 10:09:12;;;;;;;12.43;2.33;;;;;;;18.00;67.06;98845.78;5146661;28;20069;-82
2022/10/24 10:12:03;;;;;;;6.90;1.73;;;;;;;18.34;66.18;98873.66;5156237;28;20070;-82
2022/10/24 10:14:54;;;;;;;5.25;2.05;;;;;;;18.13;67.28;98883.44;5172180;28;20581;-82
2022/10/24 10:17:53;;;;;;;11.25;2.78;;;;;;;18.08;67.86;98875.16;5147336;28;20055;-82
2022/10/24 10:20:44;;;;;;;12.23;2.70;;;;;;;17.62;68.88;98838.03;5173939;28;20070;-82
2022/10/24 10:23:35;;;;;;;14.43;2.55;;;;;;;18.02;68.74;98881.28;5160223;28;20110;-83
2022/10/24 10:26:28;;;;;;;7.55;2.25;;;;;;;18.00;68.16;98861.88;5145576;28;20070;-83
2022/10/24 10:29:23;;;;;;;10.63;2.53;;;;;;;18.09;67.67;98860.72;5168364;28;20078;-83
2022/10/24 10:32:33;;;;;;;10.82;2.03;;;;;;;17.97;68.30;98868.44;5145938;28;21061;-83
2022/10/24 10:35:42;;;;;;;11.43;2.55;;;;;;;18.16;68.77;98875.00;5170821;28;20040;-84
2022/10/24 10:39:11;;;;;;;9.27;2.83;;;;;;;18.46;67.64;98862.19;5167091;28;20538;-83
2022/10/24 10:42:13;;;;;;;9.98;2.63;;;;;;;18.35;67.50;98829.72;5176776;28;20053;-82
2022/10/24 10:45:20;;;;;;;5.32;2.25;;;;;;;18.70;65.44;98849.28;5168477;28;20065;-83
2022/10/24 10:48:39;;;;;;;12.05;2.63;;;;;;;18.76;65.58;98870.00;5175206;28;20054;-82
2022/10/24 10:51:46;;;;;;;9.45;2.53;;;;;;;18.62;65.13;98871.78;5183238;28;20051;-83
2022/10/24 10:54:39;;;;;;;17.85;2.20;;;;;;;18.81;64.49;98869.41;5183402;28;20057;-82
2022/10/24 10:58:01;;;;;;;13.77;2.17;;;;;;;19.17;63.75;98874.50;5158030;28;20118;-83
2022/10/24 11:01:22;;;;;;;8.27;1.85;;;;;;;19.29;63.06;98888.19;5177323;28;20046;-82
2022/10/24 11:04:50;;;;;;;8.90;1.80;;;;;;;19.10;62.80;98887.91;5163833;28;20049;-82
2022/10/24 11:07:49;;;;;;;7.18;1.40;;;;;;;18.78;63.05;98890.28;5169329;28;20149;-83
2022/10/24 11:10:46;;;;;;;14.02;1.70;;;;;;;18.86;60.78;98856.22;5186188;28;20070;-82
2022/10/24 11:13:41;;;;;;;7.30;1.80;;;;;;;19.00;61.85;98874.03;5181665;28;20050;-82
2022/10/24 11:16:34;;;;;;;9.95;1.67;;;;;;;18.60;62.20;98873.81;5161725;28;20061;-82
2022/10/24 11:19:38;;;;;;;10.23;1.40;;;;;;;18.63;62.05;98851.13;5170960;28;20049;-82
2022/10/24 11:22:37;;;;;;;7.25;1.30;;;;;;;18.73;61.32;98876.59;5185578;28;20081;-83
2022/10/24 11:25:53;;;;;;;4.50;1.70;;;;;;;18.97;61.83;98890.56;5167110;28;20062;-82
2022/10/24 11:29:14;;;;;;;6.28;1.80;;;;;;;19.05;60.96;98857.31;5205320;28;20082;-83
2022/10/24 11:32:39;;;;;;;5.18;1.30;;;;;;;19.06;61.42;98875.91;5177779;28;20034;-84
2022/10/24 11:35:39;;;;;;;6.30;1.40;;;;;;;18.17;62.45;98822.97;5183246;28;20049;-83
2022/10/24 11:38:31;;;;;;;9.27;1.67;;;;;;;19.31;61.09;98892.34;5167463;28;20044;-83
2022/10/24 11:41:33;;;;;;;8.32;1.33;;;;;;;19.48;59.88;98877.50;5188460;28;20057;-82
2022/10/24 11:44:39;;;;;;;3.17;1.08;;;;;;;19.05;60.62;98855.47;5183513;28;20517;-82
2022/10/24 11:47:42;;;;;;;3.45;1.10;;;;;;;18.98;60.60;98854.63;5170059;28;20523;-82
2022/10/24 11:50:38;;;;;;;9.20;1.27;;;;;;;19.40;60.01;98871.47;5177467;28;20185;-82
2022/10/24 11:53:32;;;;;;;5.50;1.65;;;;;;;19.49;59.81;98864.88;5160471;28;20069;-82
2022/10/24 11:56:50;;;;;;;5.20;1.08;;;;;;;19.35;60.65;98868.56;5190645;28;20054;-83
2022/10/24 11:59:41;;;;;;;5.00;1.10;;;;;;;19.36;59.98;98846.03;5157361;28;20525;-85
2022/10/24 12:03:01;;;;;;;5.13;1.30;;;;;;;19.48;60.42;98861.34;5171800;28;20047;-84
2022/10/24 12:06:07;;;;;;;4.50;1.30;;;;;;;19.66;59.15;98858.09;5188954;28;20061;-81
2022/10/24 12:09:14;;;;;;;2.38;1.20;;;;;;;19.45;59.34;98836.75;5171080;28;20061;-81
2022/10/24 12:12:20;;;;;;;2.92;1.23;;;;;;;19.91;59.41;98849.41;5177906;28;20057;-81
2022/10/24 12:15:16;;;;;;;9.10;1.25;;;;;;;19.60;59.51;98842.75;5183678;28;20061;-82
2022/10/24 12:18:12;;;;;;;6.93;1.58;;;;;;;19.67;59.70;98840.13;5165993;28;20065;-82
2022/10/24 12:21:08;;;;;;;3.70;1.20;;;;;;;19.68;59.34;98844.44;5173285;28;20437;-83
2022/10/24 12:24:00;;;;;;;6.10;1.27;;;;;;;19.25;59.91;98799.06;5135432;28;20055;-81
2022/10/24 12:26:57;;;;;;;6.00;1.55;;;;;;;19.51;60.62;98838.63;5136674;28;20061;-83
2022/10/24 12:30:00;;;;;;;6.35;1.55;;;;;;;19.27;59.97;98807.78;5163895;28;20058;-82
2022/10/24 12:33:23;;;;;;;8.43;1.40;;;;;;;19.44;60.64;98833.22;5146138;28;20054;-82
2022/10/24 12:36:14;;;;;;;11.45;2.22;;;;;;;19.07;60.74;98788.88;5167883;28;20058;-82
2022/10/24 12:39:07;;;;;;;10.05;1.45;;;;;;;19.76;59.48;98841.53;5180149;28;20519;-81
2022/10/24 12:41:58;;;;;;;3.33;1.38;;;;;;;19.59;59.74;98814.19;5165063;28;20068;-82
2022/10/24 12:45:26;;;;;;;10.02;1.30;;;;;;;19.88;60.34;98837.19;5152272;28;20069;-81
2022/10/24 12:48:35;;;;;;;5.72;1.17;;;;;;;19.70;59.60;98827.06;5158691;28;20057;-82
2022/10/24 12:51:28;;;;;;;8.27;1.08;;;;;;;19.78;59.80;98846.72;5151160;28;20057;-82
2022/10/24 12:54:37;;;;;;;4.65;1.30;;;;;;;19.87;60.03;98850.88;5179956;28;20188;-82
2022/10/24 12:57:35;;;;;;;3.97;1.10;;;;;;;19.82;59.38;98835.34;5172710;28;20054;-83
2022/10/24 13:00:28;;;;;;;4.32;1.08;;;;;;;19.81;59.71;98849.00;5151067;28;20124;-81
2022/10/24 13:03:44;;;;;;;5.25;1.35;;;;;;;19.60;60.51;98820.41;5148100;28;20461;-82
2022/10/24 13:06:55;;;;;;;7.55;1.38;;;;;;;19.63;60.81;98818.16;5162517;28;20061;-82
2022/10/24 13:10:04;;;;;;;5.57;1.17;;;;;;;19.93;60.09;98858.94;5177723;28;20133;-82
2022/10/24 13:13:04;;;;;;;7.93;1.50;;;;;;;19.94;59.95;98863.28;5162705;28;20054;-82
2022/10/24 13:16:49;;;;;;;3.58;1.40;;;;;;;20.28;58.81;98852.47;5139651;28;20156;-83
2022/10/24 13:19:41;;;;;;;6.75;1.40;;;;;;;20.13;58.56;98832.00;5098786;29;20062;-81
2022/10/24 13:22:36;;;;;;;6.35;1.50;;;;;;;20.18;57.79;98820.63;5111641;29;20106;-82
2022/10/24 13:25:38;;;;;;;11.07;1.50;;;;;;;19.91;57.88;98801.81;5145562;28;20188;-82
2022/10/24 13:28:34;;;;;;;5.43;1.60;;;;;;;20.11;59.60;98839.47;5168118;28;20457;-83
2022/10/24 13:31:25;;;;;;;5.95;1.13;;;;;;;20.37;58.09;98852.06;5175464;28;20057;-82
2022/10/24 13:34:18;;;;;;;11.35;1.60;;;;;;;20.10;58.93;98851.28;5159490;28;20070;-83
2022/10/24 13:37:08;;;;;;;4.43;1.60;;;;;;;20.20;59.12;98853.53;5158144;28;20081;-83
2022/10/24 13:40:09;;;;;;;6.65;1.55;;;;;;;20.20;57.85;98821.25;5158633;28;20054;-83
2022/10/24 13:43:12;;;;;;;6.07;1.42;;;;;;;20.12;58.69;98834.91;5148265;28;20057;-82